sensor_id;sensor_type;location;lat;lon;timestamp;P1;durP1;ratioP1;P2;durP2;ratioP2
48897;SDS011;34713;50.038;20.000;2023-05-02T00:00:48;12.10;;;7.80;;
48897;SDS011;34713;50.038;20.000;2023-05-02T00:03:17;16.90;;;8.20;;
48897;SDS011;34713;50.038;20.000;2023-05-02T00:05:44;13.30;;;8.00;;
48897;SDS011;34713;50.038;20.000;2023-05-02T00:08:10;15.70;;;8.20;;
48897;SDS011;34713;50.038;20.000;2023-05-02T00:10:38;19.30;;;8.20;;
48897;SDS011;34713;50.038;20.000;2023-05-02T00:13:04;15.60;;;7.90;;
48897;SDS011;34713;50.038;20.000;2023-05-02T00:15:34;16.30;;;8.20;;
48897;SDS011;34713;50.038;20.000;2023-05-02T00:18:01;14.20;;;7.20;;
48897;SDS011;34713;50.038;20.000;2023-05-02T00:20:28;14.60;;;8.40;;
48897;SDS011;34713;50.038;20.000;2023-05-02T00:22:54;16.30;;;8.60;;
48897;SDS011;34713;50.038;20.000;2023-05-02T00:25:22;13.90;;;8.30;;
48897;SDS011;34713;50.038;20.000;2023-05-02T00:27:49;16.40;;;7.60;;
48897;SDS011;34713;50.038;20.000;2023-05-02T00:30:16;19.10;;;8.50;;
48897;SDS011;34713;50.038;20.000;2023-05-02T00:32:43;16.30;;;8.10;;
48897;SDS011;34713;50.038;20.000;2023-05-02T00:35:10;10.80;;;7.50;;
48897;SDS011;34713;50.038;20.000;2023-05-02T00:37:37;12.50;;;7.80;;
48897;SDS011;34713;50.038;20.000;2023-05-02T00:40:04;19.50;;;7.60;;
48897;SDS011;34713;50.038;20.000;2023-05-02T00:42:33;13.60;;;7.80;;
48897;SDS011;34713;50.038;20.000;2023-05-02T00:45:02;14.90;;;8.10;;
48897;SDS011;34713;50.038;20.000;2023-05-02T00:47:31;14.90;;;8.00;;
48897;SDS011;34713;50.038;20.000;2023-05-02T00:49:58;14.60;;;8.30;;
48897;SDS011;34713;50.038;20.000;2023-05-02T00:52:27;12.40;;;7.30;;
48897;SDS011;34713;50.038;20.000;2023-05-02T00:54:53;12.70;;;8.10;;
48897;SDS011;34713;50.038;20.000;2023-05-02T00:57:20;12.30;;;7.60;;
48897;SDS011;34713;50.038;20.000;2023-05-02T00:59:47;12.80;;;7.70;;
48897;SDS011;34713;50.038;20.000;2023-05-02T01:02:24;14.10;;;7.80;;
48897;SDS011;34713;50.038;20.000;2023-05-02T01:10:29;16.90;;;8.70;;
48897;SDS011;34713;50.038;20.000;2023-05-02T01:13:11;14.20;;;7.60;;
48897;SDS011;34713;50.038;20.000;2023-05-02T01:15:43;16.90;;;8.90;;
48897;SDS011;34713;50.038;20.000;2023-05-02T01:18:11;12.70;;;7.50;;
48897;SDS011;34713;50.038;20.000;2023-05-02T01:20:43;13.60;;;7.40;;
48897;SDS011;34713;50.038;20.000;2023-05-02T01:23:16;15.00;;;8.40;;
48897;SDS011;34713;50.038;20.000;2023-05-02T01:29:06;14.90;;;7.40;;
48897;SDS011;34713;50.038;20.000;2023-05-02T01:31:34;14.30;;;7.50;;
48897;SDS011;34713;50.038;20.000;2023-05-02T01:34:04;14.00;;;7.50;;
48897;SDS011;34713;50.038;20.000;2023-05-02T01:36:35;12.80;;;7.70;;
48897;SDS011;34713;50.038;20.000;2023-05-02T01:39:04;14.80;;;7.80;;
48897;SDS011;34713;50.038;20.000;2023-05-02T01:41:32;13.70;;;7.60;;
48897;SDS011;34713;50.038;20.000;2023-05-02T01:44:01;13.10;;;7.70;;
48897;SDS011;34713;50.038;20.000;2023-05-02T01:46:32;15.00;;;8.40;;
48897;SDS011;34713;50.038;20.000;2023-05-02T01:49:01;15.90;;;8.20;;
48897;SDS011;34713;50.038;20.000;2023-05-02T01:51:29;17.50;;;8.20;;
48897;SDS011;34713;50.038;20.000;2023-05-02T01:53:58;13.90;;;8.60;;
48897;SDS011;34713;50.038;20.000;2023-05-02T01:56:28;21.90;;;8.50;;
48897;SDS011;34713;50.038;20.000;2023-05-02T01:58:57;15.70;;;8.50;;
48897;SDS011;34713;50.038;20.000;2023-05-02T02:01:24;24.30;;;9.80;;
48897;SDS011;34713;50.038;20.000;2023-05-02T02:03:53;16.00;;;8.20;;
48897;SDS011;34713;50.038;20.000;2023-05-02T02:06:22;14.20;;;8.20;;
48897;SDS011;34713;50.038;20.000;2023-05-02T02:08:49;15.00;;;7.90;;
48897;SDS011;34713;50.038;20.000;2023-05-02T02:11:16;17.00;;;7.90;;
48897;SDS011;34713;50.038;20.000;2023-05-02T02:13:48;13.80;;;7.90;;
48897;SDS011;34713;50.038;20.000;2023-05-02T02:16:18;17.40;;;8.90;;
48897;SDS011;34713;50.038;20.000;2023-05-02T02:18:48;14.20;;;8.40;;
48897;SDS011;34713;50.038;20.000;2023-05-02T02:21:15;14.30;;;8.30;;
48897;SDS011;34713;50.038;20.000;2023-05-02T02:23:45;22.70;;;9.50;;
48897;SDS011;34713;50.038;20.000;2023-05-02T02:26:13;15.50;;;8.50;;
48897;SDS011;34713;50.038;20.000;2023-05-02T02:28:40;18.50;;;9.00;;
48897;SDS011;34713;50.038;20.000;2023-05-02T02:31:08;14.50;;;8.80;;
48897;SDS011;34713;50.038;20.000;2023-05-02T02:33:37;15.00;;;8.30;;
48897;SDS011;34713;50.038;20.000;2023-05-02T02:38:46;18.40;;;8.50;;
48897;SDS011;34713;50.038;20.000;2023-05-02T02:41:22;15.60;;;8.10;;
48897;SDS011;34713;50.038;20.000;2023-05-02T02:43:58;14.00;;;8.80;;
48897;SDS011;34713;50.038;20.000;2023-05-02T02:49:34;19.40;;;8.60;;
48897;SDS011;34713;50.038;20.000;2023-05-02T02:54:51;12.60;;;7.90;;
48897;SDS011;34713;50.038;20.000;2023-05-02T03:02:34;23.30;;;8.60;;
48897;SDS011;34713;50.038;20.000;2023-05-02T03:05:01;14.90;;;8.70;;
48897;SDS011;34713;50.038;20.000;2023-05-02T03:07:29;17.10;;;8.80;;
48897;SDS011;34713;50.038;20.000;2023-05-02T03:09:55;13.70;;;7.60;;
48897;SDS011;34713;50.038;20.000;2023-05-02T03:12:23;16.10;;;8.60;;
48897;SDS011;34713;50.038;20.000;2023-05-02T03:14:49;19.80;;;8.10;;
48897;SDS011;34713;50.038;20.000;2023-05-02T03:17:16;17.40;;;8.70;;
48897;SDS011;34713;50.038;20.000;2023-05-02T03:19:43;15.50;;;8.60;;
48897;SDS011;34713;50.038;20.000;2023-05-02T03:22:09;18.00;;;8.70;;
48897;SDS011;34713;50.038;20.000;2023-05-02T03:24:36;16.00;;;9.20;;
48897;SDS011;34713;50.038;20.000;2023-05-02T03:27:03;16.30;;;8.90;;
48897;SDS011;34713;50.038;20.000;2023-05-02T03:29:30;17.00;;;9.10;;
48897;SDS011;34713;50.038;20.000;2023-05-02T03:31:56;12.70;;;7.60;;
48897;SDS011;34713;50.038;20.000;2023-05-02T03:34:26;17.50;;;8.80;;
48897;SDS011;34713;50.038;20.000;2023-05-02T03:36:53;17.90;;;9.30;;
48897;SDS011;34713;50.038;20.000;2023-05-02T03:39:19;13.70;;;9.00;;
48897;SDS011;34713;50.038;20.000;2023-05-02T03:41:46;17.30;;;8.60;;
48897;SDS011;34713;50.038;20.000;2023-05-02T03:44:12;17.40;;;9.00;;
48897;SDS011;34713;50.038;20.000;2023-05-02T03:46:39;17.00;;;8.30;;
48897;SDS011;34713;50.038;20.000;2023-05-02T03:49:06;15.20;;;7.70;;
48897;SDS011;34713;50.038;20.000;2023-05-02T03:51:33;15.90;;;8.20;;
48897;SDS011;34713;50.038;20.000;2023-05-02T03:54:00;16.80;;;8.30;;
48897;SDS011;34713;50.038;20.000;2023-05-02T03:56:30;13.20;;;7.70;;
48897;SDS011;34713;50.038;20.000;2023-05-02T03:58:56;14.40;;;8.60;;
48897;SDS011;34713;50.038;20.000;2023-05-02T04:01:23;14.10;;;7.90;;
48897;SDS011;34713;50.038;20.000;2023-05-02T04:03:50;13.80;;;8.00;;
48897;SDS011;34713;50.038;20.000;2023-05-02T04:06:17;13.00;;;8.70;;
48897;SDS011;34713;50.038;20.000;2023-05-02T04:08:44;14.30;;;8.40;;
48897;SDS011;34713;50.038;20.000;2023-05-02T04:11:10;15.60;;;8.20;;
48897;SDS011;34713;50.038;20.000;2023-05-02T04:13:37;14.50;;;8.80;;
48897;SDS011;34713;50.038;20.000;2023-05-02T04:16:04;16.10;;;8.70;;
48897;SDS011;34713;50.038;20.000;2023-05-02T04:18:31;14.50;;;8.40;;
48897;SDS011;34713;50.038;20.000;2023-05-02T04:20:58;15.90;;;8.60;;
48897;SDS011;34713;50.038;20.000;2023-05-02T04:23:24;14.50;;;8.60;;
48897;SDS011;34713;50.038;20.000;2023-05-02T04:25:51;16.50;;;8.60;;
48897;SDS011;34713;50.038;20.000;2023-05-02T04:28:22;16.80;;;8.30;;
48897;SDS011;34713;50.038;20.000;2023-05-02T04:30:49;13.30;;;8.70;;
48897;SDS011;34713;50.038;20.000;2023-05-02T04:33:16;17.10;;;9.00;;
48897;SDS011;34713;50.038;20.000;2023-05-02T04:35:43;16.00;;;9.30;;
48897;SDS011;34713;50.038;20.000;2023-05-02T04:38:10;21.60;;;9.30;;
48897;SDS011;34713;50.038;20.000;2023-05-02T04:40:37;23.10;;;9.80;;
48897;SDS011;34713;50.038;20.000;2023-05-02T04:43:03;24.00;;;9.50;;
48897;SDS011;34713;50.038;20.000;2023-05-02T04:45:30;23.50;;;10.20;;
48897;SDS011;34713;50.038;20.000;2023-05-02T04:48:00;25.30;;;10.00;;
48897;SDS011;34713;50.038;20.000;2023-05-02T04:50:27;24.90;;;10.10;;
48897;SDS011;34713;50.038;20.000;2023-05-02T04:52:54;19.70;;;9.10;;
48897;SDS011;34713;50.038;20.000;2023-05-02T04:55:21;26.40;;;9.80;;
48897;SDS011;34713;50.038;20.000;2023-05-02T04:57:47;17.20;;;9.60;;
48897;SDS011;34713;50.038;20.000;2023-05-02T05:00:14;19.10;;;9.80;;
48897;SDS011;34713;50.038;20.000;2023-05-02T05:02:41;22.80;;;10.10;;
48897;SDS011;34713;50.038;20.000;2023-05-02T05:05:08;19.70;;;10.20;;
48897;SDS011;34713;50.038;20.000;2023-05-02T05:07:35;17.10;;;10.10;;
48897;SDS011;34713;50.038;20.000;2023-05-02T05:10:01;23.20;;;9.70;;
48897;SDS011;34713;50.038;20.000;2023-05-02T05:12:29;15.20;;;9.50;;
48897;SDS011;34713;50.038;20.000;2023-05-02T05:14:55;22.30;;;10.30;;
48897;SDS011;34713;50.038;20.000;2023-05-02T05:17:22;18.00;;;8.70;;
48897;SDS011;34713;50.038;20.000;2023-05-02T05:19:52;18.60;;;9.40;;
48897;SDS011;34713;50.038;20.000;2023-05-02T05:22:28;21.80;;;8.60;;
48897;SDS011;34713;50.038;20.000;2023-05-02T05:24:55;16.50;;;8.30;;
48897;SDS011;34713;50.038;20.000;2023-05-02T05:30:38;14.80;;;7.70;;
48897;SDS011;34713;50.038;20.000;2023-05-02T05:33:37;18.20;;;8.30;;
48897;SDS011;34713;50.038;20.000;2023-05-02T05:38:54;14.40;;;7.80;;
48897;SDS011;34713;50.038;20.000;2023-05-02T05:41:25;14.20;;;7.40;;
48897;SDS011;34713;50.038;20.000;2023-05-02T05:44:05;18.20;;;7.60;;
48897;SDS011;34713;50.038;20.000;2023-05-02T05:46:32;14.10;;;7.30;;
48897;SDS011;34713;50.038;20.000;2023-05-02T05:48:59;14.60;;;7.40;;
48897;SDS011;34713;50.038;20.000;2023-05-02T05:51:26;12.30;;;6.80;;
48897;SDS011;34713;50.038;20.000;2023-05-02T05:53:53;14.20;;;7.30;;
48897;SDS011;34713;50.038;20.000;2023-05-02T05:56:20;15.70;;;7.00;;
48897;SDS011;34713;50.038;20.000;2023-05-02T05:58:48;11.90;;;7.00;;
48897;SDS011;34713;50.038;20.000;2023-05-02T06:01:15;10.70;;;6.30;;
48897;SDS011;34713;50.038;20.000;2023-05-02T06:03:42;10.40;;;6.10;;
48897;SDS011;34713;50.038;20.000;2023-05-02T06:06:08;11.90;;;6.40;;
48897;SDS011;34713;50.038;20.000;2023-05-02T06:08:35;12.50;;;6.40;;
48897;SDS011;34713;50.038;20.000;2023-05-02T06:11:02;12.00;;;5.50;;
48897;SDS011;34713;50.038;20.000;2023-05-02T06:13:28;9.40;;;6.00;;
48897;SDS011;34713;50.038;20.000;2023-05-02T06:15:59;8.20;;;5.40;;
48897;SDS011;34713;50.038;20.000;2023-05-02T06:18:26;8.30;;;5.10;;
48897;SDS011;34713;50.038;20.000;2023-05-02T06:20:53;12.40;;;6.50;;
48897;SDS011;34713;50.038;20.000;2023-05-02T06:23:20;8.70;;;4.90;;
48897;SDS011;34713;50.038;20.000;2023-05-02T06:25:46;9.00;;;4.70;;
48897;SDS011;34713;50.038;20.000;2023-05-02T06:28:13;10.00;;;4.80;;
48897;SDS011;34713;50.038;20.000;2023-05-02T06:30:40;8.10;;;4.60;;
48897;SDS011;34713;50.038;20.000;2023-05-02T06:33:07;7.10;;;4.40;;
48897;SDS011;34713;50.038;20.000;2023-05-02T06:35:49;4.80;;;3.60;;
48897;SDS011;34713;50.038;20.000;2023-05-02T06:38:16;9.60;;;3.80;;
48897;SDS011;34713;50.038;20.000;2023-05-02T06:40:43;10.30;;;4.20;;
48897;SDS011;34713;50.038;20.000;2023-05-02T06:43:18;6.20;;;3.40;;
48897;SDS011;34713;50.038;20.000;2023-05-02T06:45:47;6.50;;;3.40;;
48897;SDS011;34713;50.038;20.000;2023-05-02T06:48:14;7.50;;;2.80;;
48897;SDS011;34713;50.038;20.000;2023-05-02T06:50:41;5.70;;;2.70;;
48897;SDS011;34713;50.038;20.000;2023-05-02T06:53:07;4.40;;;2.50;;
48897;SDS011;34713;50.038;20.000;2023-05-02T06:55:34;5.10;;;2.50;;
48897;SDS011;34713;50.038;20.000;2023-05-02T06:58:01;6.60;;;2.80;;
48897;SDS011;34713;50.038;20.000;2023-05-02T07:00:37;3.00;;;1.80;;
48897;SDS011;34713;50.038;20.000;2023-05-02T07:03:04;4.30;;;1.30;;
48897;SDS011;34713;50.038;20.000;2023-05-02T07:05:33;1.80;;;1.00;;
48897;SDS011;34713;50.038;20.000;2023-05-02T07:08:11;2.60;;;1.20;;
48897;SDS011;34713;50.038;20.000;2023-05-02T07:13:25;3.20;;;1.20;;
48897;SDS011;34713;50.038;20.000;2023-05-02T07:16:13;4.10;;;1.20;;
48897;SDS011;34713;50.038;20.000;2023-05-02T07:29:00;2.80;;;1.40;;
48897;SDS011;34713;50.038;20.000;2023-05-02T07:31:49;3.50;;;1.20;;
48897;SDS011;34713;50.038;20.000;2023-05-02T07:34:16;3.40;;;1.30;;
48897;SDS011;34713;50.038;20.000;2023-05-02T07:36:43;3.80;;;1.60;;
48897;SDS011;34713;50.038;20.000;2023-05-02T07:39:14;2.60;;;1.20;;
48897;SDS011;34713;50.038;20.000;2023-05-02T07:41:41;2.30;;;1.30;;
48897;SDS011;34713;50.038;20.000;2023-05-02T07:44:34;3.40;;;1.50;;
48897;SDS011;34713;50.038;20.000;2023-05-02T07:47:34;3.10;;;1.30;;
48897;SDS011;34713;50.038;20.000;2023-05-02T07:50:00;4.10;;;1.30;;
48897;SDS011;34713;50.038;20.000;2023-05-02T07:52:29;3.20;;;1.70;;
48897;SDS011;34713;50.038;20.000;2023-05-02T07:54:56;4.00;;;1.50;;
48897;SDS011;34713;50.038;20.000;2023-05-02T07:57:30;2.00;;;1.30;;
48897;SDS011;34713;50.038;20.000;2023-05-02T08:00:20;6.80;;;1.80;;
48897;SDS011;34713;50.038;20.000;2023-05-02T08:03:02;2.40;;;1.50;;
48897;SDS011;34713;50.038;20.000;2023-05-02T08:05:29;2.40;;;1.40;;
48897;SDS011;34713;50.038;20.000;2023-05-02T08:07:56;3.30;;;1.80;;
48897;SDS011;34713;50.038;20.000;2023-05-02T08:10:27;3.60;;;1.70;;
48897;SDS011;34713;50.038;20.000;2023-05-02T08:12:53;3.20;;;2.20;;
48897;SDS011;34713;50.038;20.000;2023-05-02T08:15:20;3.00;;;2.00;;
48897;SDS011;34713;50.038;20.000;2023-05-02T08:17:47;4.00;;;1.70;;
48897;SDS011;34713;50.038;20.000;2023-05-02T08:20:14;5.00;;;1.90;;
48897;SDS011;34713;50.038;20.000;2023-05-02T08:22:40;4.80;;;2.00;;
48897;SDS011;34713;50.038;20.000;2023-05-02T08:25:07;3.70;;;2.30;;
48897;SDS011;34713;50.038;20.000;2023-05-02T08:27:55;3.50;;;2.10;;
48897;SDS011;34713;50.038;20.000;2023-05-02T08:30:21;4.00;;;2.00;;
48897;SDS011;34713;50.038;20.000;2023-05-02T08:32:48;2.90;;;2.00;;
48897;SDS011;34713;50.038;20.000;2023-05-02T08:35:28;2.70;;;1.80;;
48897;SDS011;34713;50.038;20.000;2023-05-02T08:37:55;5.70;;;2.20;;
48897;SDS011;34713;50.038;20.000;2023-05-02T08:40:22;3.10;;;1.70;;
48897;SDS011;34713;50.038;20.000;2023-05-02T08:43:11;2.60;;;2.00;;
48897;SDS011;34713;50.038;20.000;2023-05-02T08:45:41;2.70;;;2.00;;
48897;SDS011;34713;50.038;20.000;2023-05-02T08:51:19;3.50;;;2.00;;
48897;SDS011;34713;50.038;20.000;2023-05-02T08:53:58;3.00;;;1.80;;
48897;SDS011;34713;50.038;20.000;2023-05-02T08:56:39;3.60;;;2.10;;
48897;SDS011;34713;50.038;20.000;2023-05-02T09:05:45;3.10;;;1.90;;
48897;SDS011;34713;50.038;20.000;2023-05-02T09:08:30;3.30;;;2.00;;
48897;SDS011;34713;50.038;20.000;2023-05-02T09:11:01;4.30;;;1.70;;
48897;SDS011;34713;50.038;20.000;2023-05-02T09:16:15;3.50;;;1.90;;
48897;SDS011;34713;50.038;20.000;2023-05-02T09:21:17;3.50;;;2.20;;
48897;SDS011;34713;50.038;20.000;2023-05-02T09:26:38;3.90;;;1.40;;
48897;SDS011;34713;50.038;20.000;2023-05-02T09:29:15;4.10;;;2.00;;
48897;SDS011;34713;50.038;20.000;2023-05-02T09:35:06;4.00;;;1.70;;
48897;SDS011;34713;50.038;20.000;2023-05-02T09:37:33;2.80;;;1.80;;
48897;SDS011;34713;50.038;20.000;2023-05-02T09:40:43;5.70;;;2.10;;
48897;SDS011;34713;50.038;20.000;2023-05-02T09:42:52;2.70;;;1.80;;
48897;SDS011;34713;50.038;20.000;2023-05-02T09:46:00;2.70;;;1.80;;
48897;SDS011;34713;50.038;20.000;2023-05-02T09:48:32;3.90;;;1.70;;
48897;SDS011;34713;50.038;20.000;2023-05-02T09:51:18;3.50;;;1.50;;
48897;SDS011;34713;50.038;20.000;2023-05-02T09:53:48;2.60;;;1.80;;
48897;SDS011;34713;50.038;20.000;2023-05-02T09:56:56;5.70;;;2.30;;
48897;SDS011;34713;50.038;20.000;2023-05-02T09:59:25;2.40;;;1.80;;
48897;SDS011;34713;50.038;20.000;2023-05-02T10:01:55;3.60;;;1.80;;
48897;SDS011;34713;50.038;20.000;2023-05-02T10:08:04;2.50;;;1.70;;
48897;SDS011;34713;50.038;20.000;2023-05-02T10:10:44;5.50;;;1.80;;
48897;SDS011;34713;50.038;20.000;2023-05-02T10:13:13;3.20;;;1.80;;
48897;SDS011;34713;50.038;20.000;2023-05-02T10:15:43;4.10;;;1.80;;
48897;SDS011;34713;50.038;20.000;2023-05-02T10:24:16;3.30;;;2.00;;
48897;SDS011;34713;50.038;20.000;2023-05-02T10:26:48;7.70;;;2.10;;
48897;SDS011;34713;50.038;20.000;2023-05-02T10:32:12;3.20;;;1.30;;
48897;SDS011;34713;50.038;20.000;2023-05-02T10:35:07;1.90;;;1.60;;
48897;SDS011;34713;50.038;20.000;2023-05-02T10:37:35;2.10;;;1.90;;
48897;SDS011;34713;50.038;20.000;2023-05-02T10:40:02;3.50;;;1.60;;
48897;SDS011;34713;50.038;20.000;2023-05-02T10:42:29;3.10;;;1.80;;
48897;SDS011;34713;50.038;20.000;2023-05-02T10:44:56;3.30;;;1.40;;
48897;SDS011;34713;50.038;20.000;2023-05-02T10:47:47;2.50;;;1.70;;
48897;SDS011;34713;50.038;20.000;2023-05-02T10:50:12;2.80;;;1.60;;
48897;SDS011;34713;50.038;20.000;2023-05-02T10:52:39;2.20;;;1.40;;
48897;SDS011;34713;50.038;20.000;2023-05-02T10:55:30;4.90;;;1.80;;
48897;SDS011;34713;50.038;20.000;2023-05-02T11:00:30;1.70;;;1.40;;
48897;SDS011;34713;50.038;20.000;2023-05-02T11:02:59;1.80;;;1.40;;
48897;SDS011;34713;50.038;20.000;2023-05-02T11:08:44;2.60;;;1.90;;
48897;SDS011;34713;50.038;20.000;2023-05-02T11:11:43;2.30;;;1.60;;
48897;SDS011;34713;50.038;20.000;2023-05-02T11:17:57;2.30;;;1.60;;
48897;SDS011;34713;50.038;20.000;2023-05-02T11:20:39;2.40;;;1.70;;
48897;SDS011;34713;50.038;20.000;2023-05-02T11:26:04;2.50;;;1.80;;
48897;SDS011;34713;50.038;20.000;2023-05-02T11:28:49;2.20;;;1.50;;
48897;SDS011;34713;50.038;20.000;2023-05-02T11:33:58;3.80;;;1.80;;
48897;SDS011;34713;50.038;20.000;2023-05-02T11:36:36;1.50;;;1.20;;
48897;SDS011;34713;50.038;20.000;2023-05-02T11:39:03;2.50;;;1.80;;
48897;SDS011;34713;50.038;20.000;2023-05-02T11:41:44;1.80;;;1.50;;
48897;SDS011;34713;50.038;20.000;2023-05-02T11:44:13;2.20;;;1.60;;
48897;SDS011;34713;50.038;20.000;2023-05-02T11:46:43;2.60;;;1.60;;
48897;SDS011;34713;50.038;20.000;2023-05-02T11:49:22;2.00;;;1.80;;
48897;SDS011;34713;50.038;20.000;2023-05-02T11:52:09;2.90;;;1.70;;
48897;SDS011;34713;50.038;20.000;2023-05-02T11:54:41;2.30;;;1.60;;
48897;SDS011;34713;50.038;20.000;2023-05-02T11:57:07;3.50;;;2.00;;
48897;SDS011;34713;50.038;20.000;2023-05-02T11:59:53;2.40;;;1.80;;
48897;SDS011;34713;50.038;20.000;2023-05-02T12:02:35;1.90;;;1.70;;
48897;SDS011;34713;50.038;20.000;2023-05-02T12:05:03;5.70;;;2.00;;
48897;SDS011;34713;50.038;20.000;2023-05-02T12:07:37;7.50;;;2.20;;
48897;SDS011;34713;50.038;20.000;2023-05-02T12:10:07;6.40;;;1.90;;
48897;SDS011;34713;50.038;20.000;2023-05-02T12:12:35;3.10;;;1.70;;
48897;SDS011;34713;50.038;20.000;2023-05-02T12:15:08;5.80;;;2.00;;
48897;SDS011;34713;50.038;20.000;2023-05-02T12:18:12;3.70;;;2.10;;
48897;SDS011;34713;50.038;20.000;2023-05-02T12:20:40;5.00;;;1.90;;
48897;SDS011;34713;50.038;20.000;2023-05-02T12:26:37;2.60;;;1.90;;
48897;SDS011;34713;50.038;20.000;2023-05-02T12:29:06;3.80;;;1.90;;
48897;SDS011;34713;50.038;20.000;2023-05-02T12:31:36;3.00;;;2.00;;
48897;SDS011;34713;50.038;20.000;2023-05-02T12:37:09;2.70;;;1.50;;
48897;SDS011;34713;50.038;20.000;2023-05-02T12:39:48;3.40;;;1.90;;
48897;SDS011;34713;50.038;20.000;2023-05-02T12:42:24;3.70;;;1.90;;
48897;SDS011;34713;50.038;20.000;2023-05-02T12:44:51;3.50;;;2.10;;
48897;SDS011;34713;50.038;20.000;2023-05-02T12:47:28;3.80;;;2.00;;
48897;SDS011;34713;50.038;20.000;2023-05-02T12:50:00;4.00;;;2.10;;
48897;SDS011;34713;50.038;20.000;2023-05-02T12:52:47;2.90;;;2.00;;
48897;SDS011;34713;50.038;20.000;2023-05-02T12:55:17;6.00;;;2.80;;
48897;SDS011;34713;50.038;20.000;2023-05-02T12:58:07;4.20;;;2.40;;
48897;SDS011;34713;50.038;20.000;2023-05-02T13:00:34;2.90;;;2.00;;
48897;SDS011;34713;50.038;20.000;2023-05-02T13:03:02;3.90;;;2.20;;
48897;SDS011;34713;50.038;20.000;2023-05-02T13:05:30;4.50;;;2.10;;
48897;SDS011;34713;50.038;20.000;2023-05-02T13:08:04;4.80;;;2.60;;
48897;SDS011;34713;50.038;20.000;2023-05-02T13:10:45;5.10;;;2.40;;
48897;SDS011;34713;50.038;20.000;2023-05-02T13:13:14;2.60;;;1.90;;
48897;SDS011;34713;50.038;20.000;2023-05-02T13:15:41;3.00;;;1.80;;
48897;SDS011;34713;50.038;20.000;2023-05-02T13:18:08;2.80;;;1.30;;
48897;SDS011;34713;50.038;20.000;2023-05-02T13:20:34;4.40;;;1.90;;
48897;SDS011;34713;50.038;20.000;2023-05-02T13:23:01;5.00;;;2.20;;
48897;SDS011;34713;50.038;20.000;2023-05-02T13:25:34;5.60;;;2.10;;
48897;SDS011;34713;50.038;20.000;2023-05-02T13:31:24;2.90;;;2.00;;
48897;SDS011;34713;50.038;20.000;2023-05-02T13:34:02;2.40;;;1.70;;
48897;SDS011;34713;50.038;20.000;2023-05-02T13:43:03;3.40;;;1.70;;
48897;SDS011;34713;50.038;20.000;2023-05-02T13:49:02;3.10;;;2.00;;
48897;SDS011;34713;50.038;20.000;2023-05-02T13:54:39;5.20;;;2.50;;
48897;SDS011;34713;50.038;20.000;2023-05-02T13:57:09;4.00;;;2.80;;
48897;SDS011;34713;50.038;20.000;2023-05-02T14:00:15;3.60;;;2.50;;
48897;SDS011;34713;50.038;20.000;2023-05-02T14:06:18;3.40;;;2.10;;
48897;SDS011;34713;50.038;20.000;2023-05-02T14:19:19;2.30;;;1.50;;
48897;SDS011;34713;50.038;20.000;2023-05-02T14:22:19;2.60;;;1.40;;
48897;SDS011;34713;50.038;20.000;2023-05-02T14:39:18;1.80;;;1.30;;
48897;SDS011;34713;50.038;20.000;2023-05-02T14:46:00;4.50;;;1.50;;
48897;SDS011;34713;50.038;20.000;2023-05-02T15:26:06;2.00;;;1.40;;
48897;SDS011;34713;50.038;20.000;2023-05-02T15:29:17;3.10;;;1.80;;
48897;SDS011;34713;50.038;20.000;2023-05-02T15:35:42;1.80;;;1.30;;
48897;SDS011;34713;50.038;20.000;2023-05-02T15:52:25;3.00;;;2.20;;
48897;SDS011;34713;50.038;20.000;2023-05-02T16:05:24;3.20;;;2.30;;
48897;SDS011;34713;50.038;20.000;2023-05-02T16:11:32;3.10;;;2.50;;
48897;SDS011;34713;50.038;20.000;2023-05-02T16:14:30;3.70;;;2.90;;
48897;SDS011;34713;50.038;20.000;2023-05-02T16:37:37;8.40;;;2.90;;
48897;SDS011;34713;50.038;20.000;2023-05-02T16:40:35;5.00;;;3.00;;
48897;SDS011;34713;50.038;20.000;2023-05-02T16:50:11;4.50;;;3.40;;
48897;SDS011;34713;50.038;20.000;2023-05-02T17:30:21;10.50;;;6.60;;
48897;SDS011;34713;50.038;20.000;2023-05-02T17:40:31;10.40;;;6.40;;
48897;SDS011;34713;50.038;20.000;2023-05-02T17:46:18;8.50;;;6.70;;
48897;SDS011;34713;50.038;20.000;2023-05-02T17:52:15;9.90;;;7.00;;
48897;SDS011;34713;50.038;20.000;2023-05-02T18:01:40;7.30;;;6.30;;
48897;SDS011;34713;50.038;20.000;2023-05-02T18:11:33;9.30;;;5.20;;
48897;SDS011;34713;50.038;20.000;2023-05-02T18:14:00;7.50;;;5.50;;
48897;SDS011;34713;50.038;20.000;2023-05-02T18:47:31;5.10;;;4.20;;
48897;SDS011;34713;50.038;20.000;2023-05-02T18:53:26;6.20;;;4.60;;
48897;SDS011;34713;50.038;20.000;2023-05-02T18:55:53;7.40;;;5.20;;
48897;SDS011;34713;50.038;20.000;2023-05-02T19:28:22;13.10;;;7.80;;
48897;SDS011;34713;50.038;20.000;2023-05-02T19:30:49;13.20;;;9.20;;
48897;SDS011;34713;50.038;20.000;2023-05-02T19:33:24;15.80;;;10.30;;
48897;SDS011;34713;50.038;20.000;2023-05-02T19:35:54;10.40;;;7.80;;
48897;SDS011;34713;50.038;20.000;2023-05-02T19:38:21;11.20;;;7.80;;
48897;SDS011;34713;50.038;20.000;2023-05-02T19:40:48;11.70;;;7.60;;
48897;SDS011;34713;50.038;20.000;2023-05-02T19:43:17;8.70;;;7.30;;
48897;SDS011;34713;50.038;20.000;2023-05-02T19:45:48;9.90;;;6.70;;
48897;SDS011;34713;50.038;20.000;2023-05-02T19:48:26;8.80;;;6.80;;
48897;SDS011;34713;50.038;20.000;2023-05-02T19:50:56;9.80;;;6.80;;
48897;SDS011;34713;50.038;20.000;2023-05-02T19:53:44;7.80;;;6.20;;
48897;SDS011;34713;50.038;20.000;2023-05-02T19:56:14;8.70;;;6.20;;
48897;SDS011;34713;50.038;20.000;2023-05-02T19:58:54;8.50;;;5.70;;
48897;SDS011;34713;50.038;20.000;2023-05-02T20:01:24;9.60;;;6.40;;
48897;SDS011;34713;50.038;20.000;2023-05-02T20:07:11;7.50;;;6.30;;
48897;SDS011;34713;50.038;20.000;2023-05-02T20:09:38;7.60;;;6.40;;
48897;SDS011;34713;50.038;20.000;2023-05-02T20:19:18;12.50;;;8.00;;
48897;SDS011;34713;50.038;20.000;2023-05-02T20:25:40;12.00;;;8.20;;
48897;SDS011;34713;50.038;20.000;2023-05-02T20:28:40;10.10;;;8.40;;
48897;SDS011;34713;50.038;20.000;2023-05-02T20:34:59;11.10;;;8.80;;
48897;SDS011;34713;50.038;20.000;2023-05-02T20:47:42;12.70;;;10.20;;
48897;SDS011;34713;50.038;20.000;2023-05-02T20:50:19;12.20;;;9.40;;
48897;SDS011;34713;50.038;20.000;2023-05-02T20:52:50;14.80;;;10.20;;
48897;SDS011;34713;50.038;20.000;2023-05-02T20:55:23;15.20;;;10.80;;
48897;SDS011;34713;50.038;20.000;2023-05-02T20:57:52;15.30;;;11.20;;
48897;SDS011;34713;50.038;20.000;2023-05-02T21:00:28;12.10;;;10.00;;
48897;SDS011;34713;50.038;20.000;2023-05-02T21:06:25;15.30;;;10.50;;
48897;SDS011;34713;50.038;20.000;2023-05-02T21:12:30;14.30;;;10.50;;
48897;SDS011;34713;50.038;20.000;2023-05-02T21:15:17;13.10;;;10.30;;
48897;SDS011;34713;50.038;20.000;2023-05-02T21:18:10;13.60;;;9.70;;
48897;SDS011;34713;50.038;20.000;2023-05-02T21:21:14;12.50;;;9.70;;
48897;SDS011;34713;50.038;20.000;2023-05-02T21:23:41;11.60;;;9.80;;
48897;SDS011;34713;50.038;20.000;2023-05-02T21:29:00;13.90;;;10.70;;
48897;SDS011;34713;50.038;20.000;2023-05-02T21:31:28;12.50;;;10.00;;
48897;SDS011;34713;50.038;20.000;2023-05-02T21:34:04;16.80;;;12.30;;
48897;SDS011;34713;50.038;20.000;2023-05-02T21:36:36;16.00;;;11.40;;
48897;SDS011;34713;50.038;20.000;2023-05-02T21:39:07;13.70;;;10.90;;
48897;SDS011;34713;50.038;20.000;2023-05-02T21:42:01;16.80;;;11.00;;
48897;SDS011;34713;50.038;20.000;2023-05-02T21:44:32;16.60;;;11.80;;
48897;SDS011;34713;50.038;20.000;2023-05-02T21:47:01;15.20;;;10.90;;